sensor_id;sensor_type;location;lat;lon;timestamp;P1;durP1;ratioP1;P2;durP2;ratioP2
35444;SDS011;21562;49.476;6.086;2023-06-26T00:00:14;6.88;;;4.18;;
35444;SDS011;21562;49.476;6.086;2023-06-26T00:02:40;7.35;;;4.90;;
35444;SDS011;21562;49.476;6.086;2023-06-26T00:05:06;7.97;;;4.78;;
35444;SDS011;21562;49.476;6.086;2023-06-26T00:07:32;6.05;;;4.53;;
35444;SDS011;21562;49.476;6.086;2023-06-26T00:10:01;6.10;;;4.60;;
35444;SDS011;21562;49.476;6.086;2023-06-26T00:12:28;12.68;;;5.15;;
35444;SDS011;21562;49.476;6.086;2023-06-26T00:14:54;7.43;;;5.05;;
35444;SDS011;21562;49.476;6.086;2023-06-26T00:17:20;7.93;;;5.28;;
35444;SDS011;21562;49.476;6.086;2023-06-26T00:19:45;12.13;;;4.95;;
35444;SDS011;21562;49.476;6.086;2023-06-26T00:22:11;7.55;;;5.22;;
35444;SDS011;21562;49.476;6.086;2023-06-26T00:24:37;8.35;;;5.00;;
35444;SDS011;21562;49.476;6.086;2023-06-26T00:27:02;8.60;;;5.32;;
35444;SDS011;21562;49.476;6.086;2023-06-26T00:29:28;7.28;;;5.10;;
35444;SDS011;21562;49.476;6.086;2023-06-26T00:31:54;6.63;;;5.75;;
35444;SDS011;21562;49.476;6.086;2023-06-26T00:34:19;5.53;;;4.60;;
35444;SDS011;21562;49.476;6.086;2023-06-26T00:36:45;7.00;;;4.95;;
35444;SDS011;21562;49.476;6.086;2023-06-26T00:39:10;7.70;;;4.55;;
35444;SDS011;21562;49.476;6.086;2023-06-26T00:41:36;10.07;;;5.30;;
35444;SDS011;21562;49.476;6.086;2023-06-26T00:44:05;8.88;;;5.07;;
35444;SDS011;21562;49.476;6.086;2023-06-26T00:46:31;7.63;;;4.68;;
35444;SDS011;21562;49.476;6.086;2023-06-26T00:49:02;8.73;;;4.53;;
35444;SDS011;21562;49.476;6.086;2023-06-26T00:51:28;9.88;;;5.10;;
35444;SDS011;21562;49.476;6.086;2023-06-26T00:53:55;6.40;;;5.18;;
35444;SDS011;21562;49.476;6.086;2023-06-26T00:56:22;7.30;;;5.20;;
35444;SDS011;21562;49.476;6.086;2023-06-26T00:58:48;9.13;;;5.38;;
35444;SDS011;21562;49.476;6.086;2023-06-26T01:01:14;6.45;;;4.85;;
35444;SDS011;21562;49.476;6.086;2023-06-26T01:03:42;8.18;;;5.00;;
35444;SDS011;21562;49.476;6.086;2023-06-26T01:06:10;8.23;;;5.55;;
35444;SDS011;21562;49.476;6.086;2023-06-26T01:08:38;8.10;;;5.10;;
35444;SDS011;21562;49.476;6.086;2023-06-26T01:11:06;7.35;;;4.88;;
35444;SDS011;21562;49.476;6.086;2023-06-26T01:13:32;9.88;;;5.38;;
35444;SDS011;21562;49.476;6.086;2023-06-26T01:15:59;7.20;;;4.93;;
35444;SDS011;21562;49.476;6.086;2023-06-26T01:18:25;10.07;;;4.90;;
35444;SDS011;21562;49.476;6.086;2023-06-26T01:20:51;7.55;;;5.35;;
35444;SDS011;21562;49.476;6.086;2023-06-26T01:23:29;8.50;;;5.50;;
35444;SDS011;21562;49.476;6.086;2023-06-26T01:28:38;6.68;;;4.97;;
35444;SDS011;21562;49.476;6.086;2023-06-26T01:31:06;6.50;;;4.93;;
35444;SDS011;21562;49.476;6.086;2023-06-26T01:33:32;6.90;;;4.85;;
35444;SDS011;21562;49.476;6.086;2023-06-26T01:35:58;7.55;;;4.50;;
35444;SDS011;21562;49.476;6.086;2023-06-26T01:38:24;7.32;;;5.13;;
35444;SDS011;21562;49.476;6.086;2023-06-26T01:40:51;6.80;;;5.07;;
35444;SDS011;21562;49.476;6.086;2023-06-26T01:43:24;7.53;;;5.50;;
35444;SDS011;21562;49.476;6.086;2023-06-26T01:46:01;6.10;;;5.03;;
35444;SDS011;21562;49.476;6.086;2023-06-26T01:48:42;11.95;;;5.32;;
35444;SDS011;21562;49.476;6.086;2023-06-26T01:51:13;8.15;;;5.35;;
35444;SDS011;21562;49.476;6.086;2023-06-26T01:53:43;8.00;;;4.70;;
35444;SDS011;21562;49.476;6.086;2023-06-26T01:56:13;9.57;;;5.10;;
35444;SDS011;21562;49.476;6.086;2023-06-26T01:58:43;6.85;;;5.30;;
35444;SDS011;21562;49.476;6.086;2023-06-26T02:01:11;7.72;;;4.93;;
35444;SDS011;21562;49.476;6.086;2023-06-26T02:03:37;8.65;;;5.03;;
35444;SDS011;21562;49.476;6.086;2023-06-26T02:06:02;9.45;;;5.47;;
35444;SDS011;21562;49.476;6.086;2023-06-26T02:08:28;7.65;;;5.18;;
35444;SDS011;21562;49.476;6.086;2023-06-26T02:10:54;9.20;;;5.10;;
35444;SDS011;21562;49.476;6.086;2023-06-26T02:13:19;9.07;;;5.10;;
35444;SDS011;21562;49.476;6.086;2023-06-26T02:15:45;6.38;;;4.80;;
35444;SDS011;21562;49.476;6.086;2023-06-26T02:18:10;9.18;;;5.15;;
35444;SDS011;21562;49.476;6.086;2023-06-26T02:20:36;7.70;;;5.32;;
35444;SDS011;21562;49.476;6.086;2023-06-26T02:23:02;8.07;;;5.20;;
35444;SDS011;21562;49.476;6.086;2023-06-26T02:25:27;7.05;;;5.30;;
35444;SDS011;21562;49.476;6.086;2023-06-26T02:27:53;6.10;;;4.80;;
35444;SDS011;21562;49.476;6.086;2023-06-26T02:30:19;8.50;;;5.18;;
35444;SDS011;21562;49.476;6.086;2023-06-26T02:32:45;7.18;;;5.10;;
35444;SDS011;21562;49.476;6.086;2023-06-26T02:35:11;6.47;;;4.80;;
35444;SDS011;21562;49.476;6.086;2023-06-26T02:37:36;9.95;;;5.65;;
35444;SDS011;21562;49.476;6.086;2023-06-26T02:40:02;10.45;;;5.70;;
35444;SDS011;21562;49.476;6.086;2023-06-26T02:42:28;7.60;;;5.53;;
35444;SDS011;21562;49.476;6.086;2023-06-26T02:44:56;7.40;;;4.93;;
35444;SDS011;21562;49.476;6.086;2023-06-26T02:47:22;7.40;;;5.30;;
35444;SDS011;21562;49.476;6.086;2023-06-26T02:49:47;11.27;;;5.97;;
35444;SDS011;21562;49.476;6.086;2023-06-26T02:52:13;9.43;;;5.35;;
35444;SDS011;21562;49.476;6.086;2023-06-26T02:54:38;9.88;;;5.85;;
35444;SDS011;21562;49.476;6.086;2023-06-26T02:57:04;10.23;;;5.20;;
35444;SDS011;21562;49.476;6.086;2023-06-26T02:59:30;7.30;;;4.90;;
35444;SDS011;21562;49.476;6.086;2023-06-26T03:01:55;8.73;;;5.38;;
35444;SDS011;21562;49.476;6.086;2023-06-26T03:04:21;7.57;;;5.05;;
35444;SDS011;21562;49.476;6.086;2023-06-26T03:06:47;8.02;;;5.28;;
35444;SDS011;21562;49.476;6.086;2023-06-26T03:09:12;10.60;;;5.10;;
35444;SDS011;21562;49.476;6.086;2023-06-26T03:11:38;6.97;;;5.35;;
35444;SDS011;21562;49.476;6.086;2023-06-26T03:14:04;6.32;;;4.85;;
35444;SDS011;21562;49.476;6.086;2023-06-26T03:16:29;7.97;;;5.05;;
35444;SDS011;21562;49.476;6.086;2023-06-26T03:18:55;5.70;;;4.80;;
35444;SDS011;21562;49.476;6.086;2023-06-26T03:21:20;7.47;;;5.25;;
35444;SDS011;21562;49.476;6.086;2023-06-26T03:23:46;10.40;;;5.68;;
35444;SDS011;21562;49.476;6.086;2023-06-26T03:26:11;11.05;;;5.13;;
35444;SDS011;21562;49.476;6.086;2023-06-26T03:28:39;9.60;;;5.50;;
35444;SDS011;21562;49.476;6.086;2023-06-26T03:31:05;9.55;;;5.03;;
35444;SDS011;21562;49.476;6.086;2023-06-26T03:33:31;11.27;;;6.03;;
35444;SDS011;21562;49.476;6.086;2023-06-26T03:35:56;9.23;;;5.07;;
35444;SDS011;21562;49.476;6.086;2023-06-26T03:38:22;6.97;;;5.30;;
35444;SDS011;21562;49.476;6.086;2023-06-26T03:40:49;6.97;;;5.22;;
35444;SDS011;21562;49.476;6.086;2023-06-26T03:43:14;8.98;;;6.07;;
35444;SDS011;21562;49.476;6.086;2023-06-26T03:45:40;10.40;;;5.90;;
35444;SDS011;21562;49.476;6.086;2023-06-26T03:48:06;9.40;;;6.45;;
35444;SDS011;21562;49.476;6.086;2023-06-26T03:50:33;11.63;;;6.68;;
35444;SDS011;21562;49.476;6.086;2023-06-26T03:52:58;11.57;;;6.60;;
35444;SDS011;21562;49.476;6.086;2023-06-26T03:55:24;8.75;;;6.25;;
35444;SDS011;21562;49.476;6.086;2023-06-26T03:57:50;11.27;;;6.10;;
35444;SDS011;21562;49.476;6.086;2023-06-26T04:00:15;11.98;;;6.82;;
35444;SDS011;21562;49.476;6.086;2023-06-26T04:02:41;10.98;;;7.70;;
35444;SDS011;21562;49.476;6.086;2023-06-26T04:05:07;12.82;;;7.53;;
35444;SDS011;21562;49.476;6.086;2023-06-26T04:07:33;13.30;;;7.25;;
35444;SDS011;21562;49.476;6.086;2023-06-26T04:09:59;10.93;;;7.10;;
35444;SDS011;21562;49.476;6.086;2023-06-26T04:12:25;12.35;;;7.53;;
35444;SDS011;21562;49.476;6.086;2023-06-26T04:14:51;10.48;;;7.57;;
35444;SDS011;21562;49.476;6.086;2023-06-26T04:17:16;14.77;;;7.13;;
35444;SDS011;21562;49.476;6.086;2023-06-26T04:19:42;12.93;;;7.00;;
35444;SDS011;21562;49.476;6.086;2023-06-26T04:22:07;10.05;;;6.70;;
35444;SDS011;21562;49.476;6.086;2023-06-26T04:24:33;11.70;;;6.65;;
35444;SDS011;21562;49.476;6.086;2023-06-26T04:26:58;11.13;;;6.60;;
35444;SDS011;21562;49.476;6.086;2023-06-26T04:29:27;15.90;;;6.10;;
35444;SDS011;21562;49.476;6.086;2023-06-26T04:31:53;9.25;;;6.00;;
35444;SDS011;21562;49.476;6.086;2023-06-26T04:34:26;9.98;;;5.65;;
35444;SDS011;21562;49.476;6.086;2023-06-26T04:36:52;10.25;;;5.40;;
35444;SDS011;21562;49.476;6.086;2023-06-26T04:39:17;9.35;;;5.07;;
35444;SDS011;21562;49.476;6.086;2023-06-26T04:41:44;10.38;;;5.63;;
35444;SDS011;21562;49.476;6.086;2023-06-26T04:44:10;8.73;;;4.40;;
35444;SDS011;21562;49.476;6.086;2023-06-26T04:46:36;8.63;;;4.50;;
35444;SDS011;21562;49.476;6.086;2023-06-26T04:49:09;7.78;;;4.20;;
35444;SDS011;21562;49.476;6.086;2023-06-26T04:51:35;8.30;;;4.95;;
35444;SDS011;21562;49.476;6.086;2023-06-26T04:54:06;10.57;;;4.72;;
35444;SDS011;21562;49.476;6.086;2023-06-26T04:56:32;9.23;;;5.32;;
35444;SDS011;21562;49.476;6.086;2023-06-26T04:58:58;10.85;;;4.95;;
35444;SDS011;21562;49.476;6.086;2023-06-26T05:01:24;7.90;;;4.57;;
35444;SDS011;21562;49.476;6.086;2023-06-26T05:03:49;11.02;;;4.32;;
35444;SDS011;21562;49.476;6.086;2023-06-26T05:06:15;8.60;;;4.18;;
35444;SDS011;21562;49.476;6.086;2023-06-26T05:08:41;6.40;;;4.03;;
35444;SDS011;21562;49.476;6.086;2023-06-26T05:11:06;5.85;;;4.22;;
35444;SDS011;21562;49.476;6.086;2023-06-26T05:13:32;9.38;;;3.53;;
35444;SDS011;21562;49.476;6.086;2023-06-26T05:15:57;10.32;;;4.20;;
35444;SDS011;21562;49.476;6.086;2023-06-26T05:18:23;6.95;;;3.33;;
35444;SDS011;21562;49.476;6.086;2023-06-26T05:20:49;7.57;;;4.18;;
35444;SDS011;21562;49.476;6.086;2023-06-26T05:23:15;6.20;;;3.38;;
35444;SDS011;21562;49.476;6.086;2023-06-26T05:25:41;11.25;;;3.65;;
35444;SDS011;21562;49.476;6.086;2023-06-26T05:28:07;7.60;;;3.03;;
35444;SDS011;21562;49.476;6.086;2023-06-26T05:30:35;7.90;;;3.20;;
35444;SDS011;21562;49.476;6.086;2023-06-26T05:33:02;5.97;;;2.97;;
35444;SDS011;21562;49.476;6.086;2023-06-26T05:35:28;5.13;;;2.63;;
35444;SDS011;21562;49.476;6.086;2023-06-26T05:37:57;7.70;;;2.60;;
35444;SDS011;21562;49.476;6.086;2023-06-26T05:40:23;8.65;;;3.13;;
35444;SDS011;21562;49.476;6.086;2023-06-26T05:42:49;5.57;;;3.10;;
35444;SDS011;21562;49.476;6.086;2023-06-26T05:45:15;6.85;;;3.35;;
35444;SDS011;21562;49.476;6.086;2023-06-26T05:47:41;5.40;;;2.90;;
35444;SDS011;21562;49.476;6.086;2023-06-26T05:50:07;5.40;;;2.53;;
35444;SDS011;21562;49.476;6.086;2023-06-26T05:52:34;8.18;;;3.63;;
35444;SDS011;21562;49.476;6.086;2023-06-26T05:55:01;4.93;;;2.92;;
35444;SDS011;21562;49.476;6.086;2023-06-26T05:57:28;10.65;;;3.17;;
35444;SDS011;21562;49.476;6.086;2023-06-26T05:59:55;9.35;;;3.20;;
35444;SDS011;21562;49.476;6.086;2023-06-26T06:02:21;7.38;;;3.70;;
35444;SDS011;21562;49.476;6.086;2023-06-26T06:04:47;8.10;;;3.40;;
35444;SDS011;21562;49.476;6.086;2023-06-26T06:07:13;6.45;;;3.05;;
35444;SDS011;21562;49.476;6.086;2023-06-26T06:09:39;8.27;;;3.53;;
35444;SDS011;21562;49.476;6.086;2023-06-26T06:12:05;5.72;;;2.83;;
35444;SDS011;21562;49.476;6.086;2023-06-26T06:14:32;6.50;;;2.90;;
35444;SDS011;21562;49.476;6.086;2023-06-26T06:16:58;5.38;;;3.30;;
35444;SDS011;21562;49.476;6.086;2023-06-26T06:19:35;11.65;;;3.15;;
35444;SDS011;21562;49.476;6.086;2023-06-26T06:22:01;11.07;;;3.17;;
35444;SDS011;21562;49.476;6.086;2023-06-26T06:24:27;6.03;;;2.85;;
35444;SDS011;21562;49.476;6.086;2023-06-26T06:26:52;9.88;;;3.30;;
35444;SDS011;21562;49.476;6.086;2023-06-26T06:29:18;6.25;;;3.10;;
35444;SDS011;21562;49.476;6.086;2023-06-26T06:31:44;8.65;;;3.05;;
35444;SDS011;21562;49.476;6.086;2023-06-26T06:34:10;10.02;;;4.22;;
35444;SDS011;21562;49.476;6.086;2023-06-26T06:36:36;6.22;;;2.83;;
35444;SDS011;21562;49.476;6.086;2023-06-26T06:39:02;7.75;;;3.30;;
35444;SDS011;21562;49.476;6.086;2023-06-26T06:41:28;9.60;;;2.88;;
35444;SDS011;21562;49.476;6.086;2023-06-26T06:43:54;7.38;;;2.65;;
35444;SDS011;21562;49.476;6.086;2023-06-26T06:46:20;9.15;;;2.58;;
35444;SDS011;21562;49.476;6.086;2023-06-26T06:48:45;5.72;;;2.83;;
35444;SDS011;21562;49.476;6.086;2023-06-26T06:51:12;4.93;;;2.33;;
35444;SDS011;21562;49.476;6.086;2023-06-26T06:53:38;5.88;;;2.85;;
35444;SDS011;21562;49.476;6.086;2023-06-26T06:56:03;4.50;;;2.35;;
35444;SDS011;21562;49.476;6.086;2023-06-26T06:58:29;6.32;;;3.08;;
35444;SDS011;21562;49.476;6.086;2023-06-26T07:00:58;8.85;;;2.40;;
35444;SDS011;21562;49.476;6.086;2023-06-26T07:03:24;4.50;;;2.30;;
35444;SDS011;21562;49.476;6.086;2023-06-26T07:05:50;7.93;;;2.55;;
35444;SDS011;21562;49.476;6.086;2023-06-26T07:08:16;7.55;;;2.40;;
35444;SDS011;21562;49.476;6.086;2023-06-26T07:10:41;8.20;;;2.50;;
35444;SDS011;21562;49.476;6.086;2023-06-26T07:13:07;7.03;;;2.60;;
35444;SDS011;21562;49.476;6.086;2023-06-26T07:15:33;5.43;;;2.42;;
35444;SDS011;21562;49.476;6.086;2023-06-26T07:17:58;6.25;;;1.85;;
35444;SDS011;21562;49.476;6.086;2023-06-26T07:20:24;9.77;;;3.00;;
35444;SDS011;21562;49.476;6.086;2023-06-26T07:22:50;8.52;;;2.30;;
35444;SDS011;21562;49.476;6.086;2023-06-26T07:25:15;6.30;;;2.90;;
35444;SDS011;21562;49.476;6.086;2023-06-26T07:27:41;11.52;;;2.78;;
35444;SDS011;21562;49.476;6.086;2023-06-26T07:30:07;10.30;;;2.40;;
35444;SDS011;21562;49.476;6.086;2023-06-26T07:32:34;5.88;;;3.05;;
35444;SDS011;21562;49.476;6.086;2023-06-26T07:35:00;6.75;;;2.25;;
35444;SDS011;21562;49.476;6.086;2023-06-26T07:37:26;10.43;;;2.40;;
35444;SDS011;21562;49.476;6.086;2023-06-26T07:39:51;6.20;;;2.50;;
35444;SDS011;21562;49.476;6.086;2023-06-26T07:42:17;8.98;;;2.60;;
35444;SDS011;21562;49.476;6.086;2023-06-26T07:44:43;9.68;;;2.47;;
35444;SDS011;21562;49.476;6.086;2023-06-26T07:47:08;9.45;;;2.65;;
35444;SDS011;21562;49.476;6.086;2023-06-26T07:49:36;12.30;;;3.35;;
35444;SDS011;21562;49.476;6.086;2023-06-26T07:52:02;12.27;;;3.30;;
35444;SDS011;21562;49.476;6.086;2023-06-26T07:54:28;7.68;;;3.05;;
35444;SDS011;21562;49.476;6.086;2023-06-26T07:59:22;9.88;;;3.05;;
35444;SDS011;21562;49.476;6.086;2023-06-26T08:01:50;7.60;;;2.65;;
35444;SDS011;21562;49.476;6.086;2023-06-26T08:04:20;11.20;;;3.63;;
35444;SDS011;21562;49.476;6.086;2023-06-26T08:06:48;11.43;;;2.78;;
35444;SDS011;21562;49.476;6.086;2023-06-26T08:09:15;10.30;;;3.42;;
35444;SDS011;21562;49.476;6.086;2023-06-26T08:11:42;9.77;;;3.17;;
35444;SDS011;21562;49.476;6.086;2023-06-26T08:14:07;5.15;;;2.28;;
35444;SDS011;21562;49.476;6.086;2023-06-26T08:16:33;5.18;;;2.83;;
35444;SDS011;21562;49.476;6.086;2023-06-26T08:18:59;8.73;;;3.42;;
35444;SDS011;21562;49.476;6.086;2023-06-26T08:21:25;11.18;;;3.58;;
35444;SDS011;21562;49.476;6.086;2023-06-26T08:23:50;9.80;;;3.45;;
35444;SDS011;21562;49.476;6.086;2023-06-26T08:26:16;11.10;;;3.20;;
35444;SDS011;21562;49.476;6.086;2023-06-26T08:28:42;7.85;;;3.25;;
35444;SDS011;21562;49.476;6.086;2023-06-26T08:31:07;10.43;;;2.95;;
35444;SDS011;21562;49.476;6.086;2023-06-26T08:33:33;11.88;;;3.42;;
35444;SDS011;21562;49.476;6.086;2023-06-26T08:35:58;7.25;;;2.70;;
35444;SDS011;21562;49.476;6.086;2023-06-26T08:38:24;9.70;;;2.80;;
35444;SDS011;21562;49.476;6.086;2023-06-26T08:40:50;9.70;;;2.67;;
35444;SDS011;21562;49.476;6.086;2023-06-26T08:43:15;10.23;;;2.50;;
35444;SDS011;21562;49.476;6.086;2023-06-26T08:45:41;7.78;;;2.45;;
35444;SDS011;21562;49.476;6.086;2023-06-26T08:48:07;7.35;;;2.70;;
35444;SDS011;21562;49.476;6.086;2023-06-26T08:50:34;12.13;;;2.33;;
35444;SDS011;21562;49.476;6.086;2023-06-26T08:53:13;6.60;;;2.00;;
35444;SDS011;21562;49.476;6.086;2023-06-26T08:55:46;11.68;;;3.42;;
35444;SDS011;21562;49.476;6.086;2023-06-26T08:58:17;6.35;;;2.60;;
35444;SDS011;21562;49.476;6.086;2023-06-26T09:00:42;9.02;;;2.35;;
35444;SDS011;21562;49.476;6.086;2023-06-26T09:03:08;6.90;;;2.75;;
35444;SDS011;21562;49.476;6.086;2023-06-26T09:05:35;7.50;;;2.13;;
35444;SDS011;21562;49.476;6.086;2023-06-26T09:08:01;9.95;;;2.00;;
35444;SDS011;21562;49.476;6.086;2023-06-26T09:10:27;6.38;;;2.83;;
35444;SDS011;21562;49.476;6.086;2023-06-26T09:12:56;4.38;;;1.65;;
35444;SDS011;21562;49.476;6.086;2023-06-26T09:15:23;8.80;;;2.80;;
35444;SDS011;21562;49.476;6.086;2023-06-26T09:17:48;9.30;;;2.20;;
35444;SDS011;21562;49.476;6.086;2023-06-26T09:20:14;9.30;;;1.92;;
35444;SDS011;21562;49.476;6.086;2023-06-26T09:22:41;9.38;;;2.20;;
35444;SDS011;21562;49.476;6.086;2023-06-26T09:25:08;8.65;;;1.70;;
35444;SDS011;21562;49.476;6.086;2023-06-26T09:27:35;10.10;;;3.42;;
35444;SDS011;21562;49.476;6.086;2023-06-26T09:30:04;8.70;;;2.10;;
35444;SDS011;21562;49.476;6.086;2023-06-26T09:32:34;7.53;;;2.13;;
35444;SDS011;21562;49.476;6.086;2023-06-26T09:35:02;6.00;;;1.83;;
35444;SDS011;21562;49.476;6.086;2023-06-26T09:37:28;6.70;;;1.92;;
35444;SDS011;21562;49.476;6.086;2023-06-26T09:39:54;7.15;;;2.03;;
35444;SDS011;21562;49.476;6.086;2023-06-26T09:42:20;7.65;;;2.35;;
35444;SDS011;21562;49.476;6.086;2023-06-26T09:44:49;7.53;;;2.28;;
35444;SDS011;21562;49.476;6.086;2023-06-26T09:47:16;7.88;;;2.15;;
35444;SDS011;21562;49.476;6.086;2023-06-26T09:49:44;9.43;;;2.30;;
35444;SDS011;21562;49.476;6.086;2023-06-26T09:52:10;7.72;;;2.35;;
35444;SDS011;21562;49.476;6.086;2023-06-26T09:54:42;6.38;;;1.80;;
35444;SDS011;21562;49.476;6.086;2023-06-26T09:57:13;8.23;;;2.20;;
35444;SDS011;21562;49.476;6.086;2023-06-26T09:59:43;4.25;;;1.55;;
35444;SDS011;21562;49.476;6.086;2023-06-26T10:02:12;11.07;;;1.80;;
35444;SDS011;21562;49.476;6.086;2023-06-26T10:04:38;9.02;;;1.95;;
35444;SDS011;21562;49.476;6.086;2023-06-26T10:07:11;8.80;;;1.20;;
35444;SDS011;21562;49.476;6.086;2023-06-26T10:09:40;4.05;;;1.02;;
35444;SDS011;21562;49.476;6.086;2023-06-26T10:12:16;4.95;;;1.10;;
35444;SDS011;21562;49.476;6.086;2023-06-26T10:14:46;4.90;;;1.40;;
35444;SDS011;21562;49.476;6.086;2023-06-26T10:17:15;2.45;;;1.00;;
35444;SDS011;21562;49.476;6.086;2023-06-26T10:19:43;6.35;;;2.15;;
35444;SDS011;21562;49.476;6.086;2023-06-26T10:22:11;2.67;;;0.85;;
35444;SDS011;21562;49.476;6.086;2023-06-26T10:24:40;3.20;;;0.95;;
35444;SDS011;21562;49.476;6.086;2023-06-26T10:27:17;5.70;;;1.00;;
35444;SDS011;21562;49.476;6.086;2023-06-26T10:29:53;6.88;;;1.77;;
35444;SDS011;21562;49.476;6.086;2023-06-26T10:32:21;3.88;;;1.02;;
35444;SDS011;21562;49.476;6.086;2023-06-26T10:34:50;2.30;;;1.10;;
35444;SDS011;21562;49.476;6.086;2023-06-26T10:37:16;3.17;;;1.20;;
35444;SDS011;21562;49.476;6.086;2023-06-26T10:39:45;3.47;;;0.93;;
35444;SDS011;21562;49.476;6.086;2023-06-26T10:42:16;5.43;;;1.15;;
35444;SDS011;21562;49.476;6.086;2023-06-26T10:44:44;2.83;;;0.75;;
35444;SDS011;21562;49.476;6.086;2023-06-26T10:47:12;5.53;;;1.20;;
35444;SDS011;21562;49.476;6.086;2023-06-26T10:50:16;4.68;;;1.17;;
35444;SDS011;21562;49.476;6.086;2023-06-26T10:52:41;5.25;;;1.38;;
35444;SDS011;21562;49.476;6.086;2023-06-26T10:55:08;1.48;;;0.80;;
35444;SDS011;21562;49.476;6.086;2023-06-26T10:57:35;1.92;;;0.93;;
35444;SDS011;21562;49.476;6.086;2023-06-26T11:00:08;2.83;;;0.88;;
35444;SDS011;21562;49.476;6.086;2023-06-26T11:02:51;2.83;;;0.95;;
35444;SDS011;21562;49.476;6.086;2023-06-26T11:05:27;4.88;;;1.83;;
35444;SDS011;21562;49.476;6.086;2023-06-26T11:08:07;5.07;;;1.35;;
35444;SDS011;21562;49.476;6.086;2023-06-26T11:13:19;3.83;;;1.05;;
35444;SDS011;21562;49.476;6.086;2023-06-26T11:15:45;7.13;;;1.10;;
35444;SDS011;21562;49.476;6.086;2023-06-26T11:18:12;3.15;;;1.20;;
35444;SDS011;21562;49.476;6.086;2023-06-26T11:20:39;2.38;;;1.27;;
35444;SDS011;21562;49.476;6.086;2023-06-26T11:23:05;5.20;;;1.85;;
35444;SDS011;21562;49.476;6.086;2023-06-26T11:25:36;3.83;;;1.42;;
35444;SDS011;21562;49.476;6.086;2023-06-26T11:28:03;6.57;;;1.35;;
35444;SDS011;21562;49.476;6.086;2023-06-26T11:30:29;1.92;;;1.02;;
35444;SDS011;21562;49.476;6.086;2023-06-26T11:33:29;3.13;;;1.13;;
35444;SDS011;21562;49.476;6.086;2023-06-26T11:35:51;2.67;;;1.70;;
35444;SDS011;21562;49.476;6.086;2023-06-26T11:38:17;5.15;;;1.42;;
35444;SDS011;21562;49.476;6.086;2023-06-26T11:40:42;5.30;;;1.48;;
35444;SDS011;21562;49.476;6.086;2023-06-26T11:43:09;7.35;;;1.60;;
35444;SDS011;21562;49.476;6.086;2023-06-26T11:45:35;3.35;;;1.27;;
35444;SDS011;21562;49.476;6.086;2023-06-26T11:48:00;3.15;;;1.35;;
35444;SDS011;21562;49.476;6.086;2023-06-26T11:50:26;7.63;;;1.20;;
35444;SDS011;21562;49.476;6.086;2023-06-26T11:52:53;2.78;;;1.00;;
35444;SDS011;21562;49.476;6.086;2023-06-26T11:55:20;5.30;;;1.00;;
35444;SDS011;21562;49.476;6.086;2023-06-26T11:57:50;3.97;;;1.20;;
35444;SDS011;21562;49.476;6.086;2023-06-26T12:00:17;4.68;;;1.17;;
35444;SDS011;21562;49.476;6.086;2023-06-26T12:02:44;4.13;;;1.23;;
35444;SDS011;21562;49.476;6.086;2023-06-26T12:05:11;5.85;;;1.30;;
35444;SDS011;21562;49.476;6.086;2023-06-26T12:07:38;8.98;;;1.30;;
35444;SDS011;21562;49.476;6.086;2023-06-26T12:10:06;4.25;;;1.40;;
35444;SDS011;21562;49.476;6.086;2023-06-26T12:12:32;3.53;;;1.45;;
35444;SDS011;21562;49.476;6.086;2023-06-26T12:14:58;5.45;;;1.27;;
35444;SDS011;21562;49.476;6.086;2023-06-26T12:17:25;5.00;;;1.20;;
35444;SDS011;21562;49.476;6.086;2023-06-26T12:19:50;6.63;;;1.40;;
35444;SDS011;21562;49.476;6.086;2023-06-26T12:22:17;3.83;;;1.05;;
35444;SDS011;21562;49.476;6.086;2023-06-26T12:24:43;5.47;;;1.08;;
35444;SDS011;21562;49.476;6.086;2023-06-26T12:27:11;4.95;;;1.10;;
35444;SDS011;21562;49.476;6.086;2023-06-26T12:29:39;6.68;;;1.55;;
35444;SDS011;21562;49.476;6.086;2023-06-26T12:32:10;4.50;;;1.23;;
35444;SDS011;21562;49.476;6.086;2023-06-26T12:34:36;2.80;;;1.17;;
35444;SDS011;21562;49.476;6.086;2023-06-26T12:37:10;6.25;;;1.25;;
35444;SDS011;21562;49.476;6.086;2023-06-26T12:39:49;6.75;;;1.40;;
35444;SDS011;21562;49.476;6.086;2023-06-26T12:42:19;4.10;;;1.20;;
35444;SDS011;21562;49.476;6.086;2023-06-26T12:44:47;5.03;;;1.27;;
35444;SDS011;21562;49.476;6.086;2023-06-26T12:47:14;6.00;;;1.80;;
35444;SDS011;21562;49.476;6.086;2023-06-26T12:49:41;4.97;;;1.15;;
35444;SDS011;21562;49.476;6.086;2023-06-26T12:52:09;5.75;;;1.30;;
35444;SDS011;21562;49.476;6.086;2023-06-26T12:54:37;7.07;;;1.23;;
35444;SDS011;21562;49.476;6.086;2023-06-26T12:57:05;4.45;;;1.35;;
35444;SDS011;21562;49.476;6.086;2023-06-26T12:59:31;3.38;;;1.48;;
35444;SDS011;21562;49.476;6.086;2023-06-26T13:01:58;7.97;;;1.55;;
35444;SDS011;21562;49.476;6.086;2023-06-26T13:04:24;7.30;;;1.23;;
35444;SDS011;21562;49.476;6.086;2023-06-26T13:06:50;8.48;;;2.00;;
35444;SDS011;21562;49.476;6.086;2023-06-26T13:09:16;7.07;;;1.30;;
35444;SDS011;21562;49.476;6.086;2023-06-26T13:11:42;5.63;;;1.25;;
35444;SDS011;21562;49.476;6.086;2023-06-26T13:14:08;5.78;;;1.30;;
35444;SDS011;21562;49.476;6.086;2023-06-26T13:16:34;3.92;;;1.67;;
35444;SDS011;21562;49.476;6.086;2023-06-26T13:19:00;5.82;;;1.27;;
35444;SDS011;21562;49.476;6.086;2023-06-26T13:21:29;5.50;;;1.30;;
35444;SDS011;21562;49.476;6.086;2023-06-26T13:23:55;3.80;;;1.20;;
35444;SDS011;21562;49.476;6.086;2023-06-26T13:26:21;7.35;;;1.25;;
35444;SDS011;21562;49.476;6.086;2023-06-26T13:28:48;6.07;;;1.20;;
35444;SDS011;21562;49.476;6.086;2023-06-26T13:31:14;8.73;;;1.88;;
35444;SDS011;21562;49.476;6.086;2023-06-26T13:33:40;6.72;;;1.40;;
35444;SDS011;21562;49.476;6.086;2023-06-26T13:36:06;4.80;;;1.50;;
35444;SDS011;21562;49.476;6.086;2023-06-26T13:38:34;3.53;;;1.33;;
35444;SDS011;21562;49.476;6.086;2023-06-26T13:41:00;5.38;;;1.55;;
35444;SDS011;21562;49.476;6.086;2023-06-26T13:43:27;7.50;;;1.35;;
35444;SDS011;21562;49.476;6.086;2023-06-26T13:45:53;4.90;;;1.50;;
35444;SDS011;21562;49.476;6.086;2023-06-26T13:48:19;3.58;;;1.27;;
35444;SDS011;21562;49.476;6.086;2023-06-26T13:50:45;10.48;;;1.70;;
35444;SDS011;21562;49.476;6.086;2023-06-26T13:53:12;6.00;;;1.42;;
35444;SDS011;21562;49.476;6.086;2023-06-26T13:55:38;6.68;;;1.60;;
35444;SDS011;21562;49.476;6.086;2023-06-26T13:58:05;10.15;;;1.70;;
35444;SDS011;21562;49.476;6.086;2023-06-26T14:00:32;5.63;;;1.65;;
35444;SDS011;21562;49.476;6.086;2023-06-26T14:02:59;8.70;;;1.92;;
35444;SDS011;21562;49.476;6.086;2023-06-26T14:05:28;8.48;;;1.70;;
35444;SDS011;21562;49.476;6.086;2023-06-26T14:07:54;4.97;;;1.50;;
35444;SDS011;21562;49.476;6.086;2023-06-26T14:10:20;6.20;;;1.48;;
35444;SDS011;21562;49.476;6.086;2023-06-26T14:12:46;3.60;;;1.20;;
35444;SDS011;21562;49.476;6.086;2023-06-26T14:15:12;6.43;;;1.85;;
35444;SDS011;21562;49.476;6.086;2023-06-26T14:17:38;4.00;;;1.38;;
35444;SDS011;21562;49.476;6.086;2023-06-26T14:20:05;5.88;;;1.33;;
35444;SDS011;21562;49.476;6.086;2023-06-26T14:22:35;4.25;;;1.52;;
35444;SDS011;21562;49.476;6.086;2023-06-26T14:25:01;12.30;;;1.80;;
35444;SDS011;21562;49.476;6.086;2023-06-26T14:27:27;3.92;;;1.55;;
35444;SDS011;21562;49.476;6.086;2023-06-26T14:29:53;8.48;;;1.65;;
35444;SDS011;21562;49.476;6.086;2023-06-26T14:32:19;6.22;;;1.25;;
35444;SDS011;21562;49.476;6.086;2023-06-26T14:34:44;8.95;;;1.63;;
35444;SDS011;21562;49.476;6.086;2023-06-26T14:37:10;7.78;;;1.42;;
35444;SDS011;21562;49.476;6.086;2023-06-26T14:39:35;4.97;;;1.23;;
35444;SDS011;21562;49.476;6.086;2023-06-26T14:42:03;6.18;;;1.45;;
35444;SDS011;21562;49.476;6.086;2023-06-26T14:44:29;2.63;;;1.30;;
35444;SDS011;21562;49.476;6.086;2023-06-26T14:46:55;11.27;;;2.17;;
35444;SDS011;21562;49.476;6.086;2023-06-26T14:49:21;9.23;;;2.28;;
35444;SDS011;21562;49.476;6.086;2023-06-26T14:51:46;7.75;;;1.50;;